PWSweather.com
Personal Weather Stations
Station Observations
J24K28P63
Vysocina, PocatkyCZ 39464

VysocinaPocatkyCZ 39464

Lat: 49.2594238, Lon: 15.2331769

Elevation: 2011

Station Type: Vantage Pro2+

http://meteo-jirkalina.com

High Low Average
Temperature 43.7°F6.5°C 28.7°F-1.8°C 37.0°F2.8°C
Dew Point 39.0°F3.9°C 22.4°F-5.3°C 32.2°F0.1°C
Winds 14.0 mph 22.5 kmh Calm Calm 4.0 mph SSW6.4 kmh SSW
Wind Gusts 24.0 mph38.6 kmh -- 6.0 mph9.7 kmh
Humidity 97% 60% 83%
Pressure 29.58 in1001.7 mb 29.35 in993.9 mb -
Precipitation 0.06 in1.5 mm - -
Hour Temp Dew Point Humidity Winds Wind Gusts Pressure Precip Precip Rate Daily Precip Total
12:00 AM 38.6°F3.7°C 32.6°F0.3°C 79% 6.0 mph S9.7 kmh S 8.0 mph12.9 kmh 29.43 in996.6 mb 0.00 in0.0 mm 0.00 in0.0 mm 0.00 in0.0 mm
12:10 AM 38.6°F3.7°C 32.6°F0.3°C 79% 5.0 mph S8.0 kmh S 6.0 mph9.7 kmh 29.43 in996.6 mb 0.00 in0.0 mm 0.00 in0.0 mm 0.00 in0.0 mm
12:20 AM 38.4°F3.6°C 32.5°F0.3°C 79% 1.0 mph SSE1.6 kmh SSE 2.0 mph3.2 kmh 29.42 in996.3 mb 0.00 in0.0 mm 0.00 in0.0 mm 0.00 in0.0 mm
12:30 AM 37.9°F3.3°C 32.3°F0.2°C 80% Calm Calm 1.0 mph1.6 kmh 29.40 in995.6 mb 0.00 in0.0 mm 0.00 in0.0 mm 0.00 in0.0 mm
12:40 AM 37.2°F2.9°C 31.9°F-0.1°C 81% Calm Calm -- 29.41 in995.9 mb 0.00 in0.0 mm 0.00 in0.0 mm 0.00 in0.0 mm
12:50 AM 37.0°F2.8°C 32.0°F0.0°C 82% Calm Calm -- 29.41 in995.9 mb 0.00 in0.0 mm 0.00 in0.0 mm 0.00 in0.0 mm
01:00 AM 36.3°F2.4°C 31.6°F-0.2°C 83% Calm Calm -- 29.40 in995.6 mb 0.00 in0.0 mm 0.00 in0.0 mm 0.00 in0.0 mm
01:10 AM 36.2°F2.3°C 31.5°F-0.3°C 83% Calm Calm -- 29.41 in995.9 mb 0.00 in0.0 mm 0.00 in0.0 mm 0.00 in0.0 mm
01:20 AM 36.1°F2.3°C 31.7°F-0.2°C 84% Calm Calm 1.0 mph1.6 kmh 29.41 in995.9 mb 0.00 in0.0 mm 0.00 in0.0 mm 0.00 in0.0 mm
01:30 AM 36.1°F2.3°C 31.7°F-0.2°C 84% 3.0 mph SE4.8 kmh SE 3.0 mph4.8 kmh 29.40 in995.6 mb 0.00 in0.0 mm 0.00 in0.0 mm 0.00 in0.0 mm
01:40 AM 36.6°F2.6°C 32.2°F0.1°C 84% 1.0 mph E1.6 kmh E 3.0 mph4.8 kmh 29.40 in995.6 mb 0.00 in0.0 mm 0.00 in0.0 mm 0.00 in0.0 mm
01:50 AM 36.9°F2.7°C 32.2°F0.1°C 83% 3.0 mph E4.8 kmh E 3.0 mph4.8 kmh 29.40 in995.6 mb 0.00 in0.0 mm 0.00 in0.0 mm 0.00 in0.0 mm
02:00 AM 37.3°F2.9°C 32.3°F0.2°C 82% 2.0 mph E3.2 kmh E 3.0 mph4.8 kmh 29.40 in995.6 mb 0.00 in0.0 mm 0.00 in0.0 mm 0.00 in0.0 mm
02:10 AM 37.3°F2.9°C 32.6°F0.3°C 83% 3.0 mph E4.8 kmh E 6.0 mph9.7 kmh 29.40 in995.6 mb 0.00 in0.0 mm 0.00 in0.0 mm 0.00 in0.0 mm
02:20 AM 37.5°F3.1°C 32.5°F0.3°C 82% 2.0 mph E3.2 kmh E 3.0 mph4.8 kmh 29.39 in995.3 mb 0.00 in0.0 mm 0.00 in0.0 mm 0.00 in0.0 mm
02:30 AM 37.3°F2.9°C 32.6°F0.3°C 83% 1.0 mph E1.6 kmh E 2.0 mph3.2 kmh 29.37 in994.6 mb 0.00 in0.0 mm 0.00 in0.0 mm 0.00 in0.0 mm
02:40 AM 37.4°F3.0°C 32.7°F0.4°C 83% 1.0 mph ESE1.6 kmh ESE 1.0 mph1.6 kmh 29.39 in995.3 mb 0.00 in0.0 mm 0.00 in0.0 mm 0.00 in0.0 mm
02:50 AM 37.6°F3.1°C 32.9°F0.5°C 83% 3.0 mph SE4.8 kmh SE 5.0 mph8.0 kmh 29.39 in995.3 mb 0.00 in0.0 mm 0.00 in0.0 mm 0.00 in0.0 mm
03:00 AM 37.9°F3.3°C 32.9°F0.5°C 82% 3.0 mph SE4.8 kmh SE 7.0 mph11.3 kmh 29.40 in995.6 mb 0.00 in0.0 mm 0.00 in0.0 mm 0.00 in0.0 mm
03:10 AM 38.2°F3.4°C 32.9°F0.5°C 81% 2.0 mph SE3.2 kmh SE 5.0 mph8.0 kmh 29.39 in995.3 mb 0.00 in0.0 mm 0.00 in0.0 mm 0.00 in0.0 mm
03:20 AM 38.2°F3.4°C 32.9°F0.5°C 81% 3.0 mph SE4.8 kmh SE 7.0 mph11.3 kmh 29.38 in994.9 mb 0.00 in0.0 mm 0.00 in0.0 mm 0.00 in0.0 mm
03:30 AM 38.4°F3.6°C 33.1°F0.6°C 81% 5.0 mph SSE8.0 kmh SSE 7.0 mph11.3 kmh 29.37 in994.6 mb 0.00 in0.0 mm 0.00 in0.0 mm 0.00 in0.0 mm
03:40 AM 38.6°F3.7°C 33.0°F0.6°C 80% 2.0 mph SE3.2 kmh SE 3.0 mph4.8 kmh 29.37 in994.6 mb 0.00 in0.0 mm 0.00 in0.0 mm 0.00 in0.0 mm
03:50 AM 38.5°F3.6°C 33.2°F0.7°C 81% 3.0 mph SE4.8 kmh SE 3.0 mph4.8 kmh 29.37 in994.6 mb 0.00 in0.0 mm 0.00 in0.0 mm 0.00 in0.0 mm
04:00 AM 38.6°F3.7°C 33.3°F0.7°C 81% 3.0 mph SE4.8 kmh SE 5.0 mph8.0 kmh 29.36 in994.2 mb 0.00 in0.0 mm 0.00 in0.0 mm 0.00 in0.0 mm
04:10 AM 38.6°F3.7°C 33.3°F0.7°C 81% 3.0 mph SE4.8 kmh SE 5.0 mph8.0 kmh 29.36 in994.2 mb 0.00 in0.0 mm 0.00 in0.0 mm 0.00 in0.0 mm
04:20 AM 38.6°F3.7°C 33.3°F0.7°C 81% 3.0 mph SE4.8 kmh SE 7.0 mph11.3 kmh 29.37 in994.6 mb 0.00 in0.0 mm 0.00 in0.0 mm 0.00 in0.0 mm
04:30 AM 38.6°F3.7°C 33.3°F0.7°C 81% 2.0 mph SSE3.2 kmh SSE 3.0 mph4.8 kmh 29.37 in994.6 mb 0.00 in0.0 mm 0.00 in0.0 mm 0.00 in0.0 mm
04:40 AM 38.6°F3.7°C 33.3°F0.7°C 81% 2.0 mph SSE3.2 kmh SSE 5.0 mph8.0 kmh 29.37 in994.6 mb 0.00 in0.0 mm 0.00 in0.0 mm 0.00 in0.0 mm
04:50 AM 38.4°F3.6°C 33.4°F0.8°C 82% 1.0 mph SSE1.6 kmh SSE 3.0 mph4.8 kmh 29.35 in993.9 mb 0.00 in0.0 mm 0.00 in0.0 mm 0.00 in0.0 mm
05:00 AM 38.3°F3.5°C 33.6°F0.9°C 83% 5.0 mph S8.0 kmh S 6.0 mph9.7 kmh 29.38 in994.9 mb 0.00 in0.0 mm 0.00 in0.0 mm 0.00 in0.0 mm
05:10 AM 38.7°F3.7°C 34.0°F1.1°C 83% 5.0 mph SE8.0 kmh SE 7.0 mph11.3 kmh 29.36 in994.2 mb 0.00 in0.0 mm 0.00 in0.0 mm 0.00 in0.0 mm
05:20 AM 38.8°F3.8°C 34.1°F1.2°C 83% 3.0 mph S4.8 kmh S 5.0 mph8.0 kmh 29.36 in994.2 mb 0.00 in0.0 mm 0.00 in0.0 mm 0.00 in0.0 mm
05:30 AM 38.9°F3.8°C 34.2°F1.2°C 83% 2.0 mph SE3.2 kmh SE 2.0 mph3.2 kmh 29.36 in994.2 mb 0.00 in0.0 mm 0.00 in0.0 mm 0.00 in0.0 mm
05:40 AM 38.9°F3.8°C 34.5°F1.4°C 84% 1.0 mph SSE1.6 kmh SSE 3.0 mph4.8 kmh 29.36 in994.2 mb 0.00 in0.0 mm 0.00 in0.0 mm 0.00 in0.0 mm
05:50 AM 38.9°F3.8°C 34.5°F1.4°C 84% 2.0 mph SE3.2 kmh SE 3.0 mph4.8 kmh 29.36 in994.2 mb 0.00 in0.0 mm 0.00 in0.0 mm 0.00 in0.0 mm
06:00 AM 38.8°F3.8°C 34.4°F1.3°C 84% 5.0 mph SSE8.0 kmh SSE 7.0 mph11.3 kmh 29.36 in994.2 mb 0.00 in0.0 mm 0.00 in0.0 mm 0.00 in0.0 mm
06:10 AM 38.7°F3.7°C 34.9°F1.6°C 86% 6.0 mph S9.7 kmh S 10.0 mph16.1 kmh 29.37 in994.6 mb 0.00 in0.0 mm 0.00 in0.0 mm 0.00 in0.0 mm
06:20 AM 38.3°F3.5°C 35.3°F1.8°C 89% 8.0 mph S12.9 kmh S 14.0 mph22.5 kmh 29.37 in994.6 mb 0.01 in0.3 mm 0.06 in1.5 mm 0.01 in0.3 mm
06:30 AM 37.6°F3.1°C 35.2°F1.8°C 91% 7.0 mph S11.3 kmh S 10.0 mph16.1 kmh 29.37 in994.6 mb 0.01 in0.3 mm 0.00 in0.0 mm 0.02 in0.5 mm
06:40 AM 37.0°F2.8°C 35.2°F1.8°C 93% 3.0 mph SSE4.8 kmh SSE 5.0 mph8.0 kmh 29.37 in994.6 mb 0.00 in0.0 mm 0.00 in0.0 mm 0.02 in0.5 mm
06:50 AM 36.6°F2.6°C 35.0°F1.7°C 94% 3.0 mph SE4.8 kmh SE 7.0 mph11.3 kmh 29.36 in994.2 mb 0.00 in0.0 mm 0.00 in0.0 mm 0.02 in0.5 mm
07:00 AM 36.6°F2.6°C 35.1°F1.7°C 94% 2.0 mph SSE3.2 kmh SSE 7.0 mph11.3 kmh 29.36 in994.2 mb 0.00 in0.0 mm 0.00 in0.0 mm 0.02 in0.5 mm
07:10 AM 36.6°F2.6°C 35.3°F1.8°C 95% 5.0 mph SE8.0 kmh SE 5.0 mph8.0 kmh 29.36 in994.2 mb 0.01 in0.3 mm 0.06 in1.5 mm 0.02 in0.5 mm
07:20 AM 36.4°F2.4°C 35.1°F1.7°C 95% 2.0 mph SE3.2 kmh SE 7.0 mph11.3 kmh 29.36 in994.2 mb 0.03 in0.8 mm 0.12 in3.0 mm 0.05 in1.3 mm
07:30 AM 36.1°F2.3°C 34.8°F1.6°C 95% 2.0 mph SE3.2 kmh SE 3.0 mph4.8 kmh 29.35 in993.9 mb 0.02 in0.5 mm 0.00 in0.0 mm 0.06 in1.5 mm
07:40 AM 36.1°F2.3°C 35.1°F1.7°C 96% 2.0 mph SE3.2 kmh SE 3.0 mph4.8 kmh 29.36 in994.2 mb 0.00 in0.0 mm 0.00 in0.0 mm 0.06 in1.5 mm
07:50 AM 36.1°F2.3°C 35.1°F1.7°C 96% 2.0 mph SE3.2 kmh SE 7.0 mph11.3 kmh 29.35 in993.9 mb 0.00 in0.0 mm 0.00 in0.0 mm 0.06 in1.5 mm
08:00 AM 36.1°F2.3°C 35.1°F1.7°C 96% 2.0 mph SE3.2 kmh SE 3.0 mph4.8 kmh 29.35 in993.9 mb 0.00 in0.0 mm 0.00 in0.0 mm 0.06 in1.5 mm
08:10 AM 36.1°F2.3°C 35.1°F1.7°C 96% 3.0 mph SE4.8 kmh SE 9.0 mph14.5 kmh 29.35 in993.9 mb 0.00 in0.0 mm 0.00 in0.0 mm 0.06 in1.5 mm
08:20 AM 36.2°F2.3°C 35.4°F1.9°C 97% 3.0 mph SE4.8 kmh SE 5.0 mph8.0 kmh 29.35 in993.9 mb 0.00 in0.0 mm 0.00 in0.0 mm 0.06 in1.5 mm
08:30 AM 36.5°F2.5°C 35.7°F2.1°C 97% 6.0 mph S9.7 kmh S 7.0 mph11.3 kmh 29.36 in994.2 mb 0.00 in0.0 mm 0.00 in0.0 mm 0.06 in1.5 mm
08:40 AM 37.0°F2.8°C 36.2°F2.3°C 97% 6.0 mph S9.7 kmh S 12.0 mph19.3 kmh 29.36 in994.2 mb - 0.00 in0.0 mm 0.06 in1.5 mm
08:50 AM 37.2°F2.9°C 36.2°F2.3°C 96% 9.0 mph S14.5 kmh S 17.0 mph27.4 kmh 29.36 in994.2 mb - 0.00 in0.0 mm 0.06 in1.5 mm
09:00 AM 37.4°F3.0°C 36.4°F2.4°C 96% 9.0 mph SW14.5 kmh SW 14.0 mph22.5 kmh 29.36 in994.2 mb - 0.00 in0.0 mm 0.06 in1.5 mm
09:10 AM 38.0°F3.3°C 36.9°F2.7°C 96% 10.0 mph SSW16.1 kmh SSW 13.0 mph20.9 kmh 29.37 in994.6 mb - 0.00 in0.0 mm 0.06 in1.5 mm
09:20 AM 39.2°F4.0°C 38.2°F3.4°C 96% 9.0 mph SW14.5 kmh SW 15.0 mph24.1 kmh 29.37 in994.6 mb - 0.00 in0.0 mm 0.06 in1.5 mm
09:30 AM 39.4°F4.1°C 38.1°F3.4°C 95% 9.0 mph SW14.5 kmh SW 16.0 mph25.7 kmh 29.38 in994.9 mb - 0.00 in0.0 mm 0.06 in1.5 mm
09:40 AM 39.6°F4.2°C 38.0°F3.3°C 94% 13.0 mph SSW20.9 kmh SSW 22.0 mph35.4 kmh 29.39 in995.3 mb - 0.00 in0.0 mm 0.06 in1.5 mm
09:50 AM 39.8°F4.3°C 37.9°F3.3°C 93% 13.0 mph SW20.9 kmh SW 21.0 mph33.8 kmh 29.39 in995.3 mb - 0.00 in0.0 mm 0.06 in1.5 mm
10:00 AM 40.1°F4.5°C 38.2°F3.4°C 93% 14.0 mph SW22.5 kmh SW 21.0 mph33.8 kmh 29.40 in995.6 mb - 0.00 in0.0 mm 0.06 in1.5 mm
10:10 AM 40.9°F4.9°C 38.8°F3.8°C 92% 13.0 mph WSW20.9 kmh WSW 24.0 mph38.6 kmh 29.40 in995.6 mb - 0.00 in0.0 mm 0.06 in1.5 mm
10:20 AM 41.5°F5.3°C 38.5°F3.6°C 89% 13.0 mph SW20.9 kmh SW 20.0 mph32.2 kmh 29.41 in995.9 mb - 0.00 in0.0 mm 0.06 in1.5 mm
10:30 AM 42.2°F5.7°C 38.9°F3.8°C 88% 13.0 mph SW20.9 kmh SW 17.0 mph27.4 kmh 29.42 in996.3 mb - 0.00 in0.0 mm 0.06 in1.5 mm
10:40 AM 42.6°F5.9°C 39.0°F3.9°C 87% 10.0 mph WSW16.1 kmh WSW 20.0 mph32.2 kmh 29.43 in996.6 mb - 0.00 in0.0 mm 0.06 in1.5 mm
10:50 AM 43.3°F6.3°C 38.7°F3.7°C 84% 9.0 mph WSW14.5 kmh WSW 20.0 mph32.2 kmh 29.44 in997.0 mb - 0.00 in0.0 mm 0.06 in1.5 mm
11:00 AM 43.4°F6.3°C 37.9°F3.3°C 81% 13.0 mph SW20.9 kmh SW 15.0 mph24.1 kmh 29.44 in997.0 mb - 0.00 in0.0 mm 0.06 in1.5 mm
11:10 AM 43.3°F6.3°C 37.8°F3.2°C 81% 13.0 mph SW20.9 kmh SW 20.0 mph32.2 kmh 29.45 in997.3 mb - 0.00 in0.0 mm 0.06 in1.5 mm
11:20 AM 43.3°F6.3°C 37.9°F3.3°C 81% 12.0 mph SW19.3 kmh SW 18.0 mph29.0 kmh 29.45 in997.3 mb - 0.00 in0.0 mm 0.06 in1.5 mm
11:30 AM 43.7°F6.5°C 38.3°F3.5°C 81% 9.0 mph WSW14.5 kmh WSW 15.0 mph24.1 kmh 29.45 in997.3 mb - 0.00 in0.0 mm 0.06 in1.5 mm
11:40 AM 43.6°F6.4°C 38.5°F3.6°C 82% 8.0 mph SW12.9 kmh SW 14.0 mph22.5 kmh 29.45 in997.3 mb - 0.00 in0.0 mm 0.06 in1.5 mm
11:50 AM 43.5°F6.4°C 38.4°F3.6°C 82% 7.0 mph SW11.3 kmh SW 14.0 mph22.5 kmh 29.46 in997.6 mb - 0.00 in0.0 mm 0.06 in1.5 mm
12:00 PM 42.5°F5.8°C 37.1°F2.8°C 81% 7.0 mph WSW11.3 kmh WSW 10.0 mph16.1 kmh 29.46 in997.6 mb - 0.00 in0.0 mm 0.06 in1.5 mm
12:10 PM 42.7°F5.9°C 37.9°F3.3°C 83% 8.0 mph SW12.9 kmh SW 12.0 mph19.3 kmh 29.46 in997.6 mb - 0.00 in0.0 mm 0.06 in1.5 mm
12:20 PM 43.1°F6.2°C 37.7°F3.2°C 81% 9.0 mph SW14.5 kmh SW 13.0 mph20.9 kmh 29.47 in998.0 mb - 0.00 in0.0 mm 0.06 in1.5 mm
12:30 PM 36.0°F2.2°C 23.8°F-4.6°C 61% 3.7 mph WNW6.0 kmh WNW 5.0 mph8.0 kmh 29.48 in998.3 mb - 0.00 in0.0 mm 0.02 in0.5 mm
12:40 PM 42.4°F5.8°C 37.0°F2.8°C 81% 10.0 mph SW16.1 kmh SW 14.0 mph22.5 kmh 29.48 in998.3 mb - 0.00 in0.0 mm 0.06 in1.5 mm
12:50 PM 42.0°F5.6°C 36.6°F2.6°C 81% 9.0 mph SW14.5 kmh SW 14.0 mph22.5 kmh 29.48 in998.3 mb - 0.00 in0.0 mm 0.06 in1.5 mm
01:00 PM 42.5°F5.8°C 36.8°F2.7°C 80% 9.0 mph SW14.5 kmh SW 16.0 mph25.7 kmh 29.48 in998.3 mb - 0.00 in0.0 mm 0.06 in1.5 mm
01:10 PM 42.9°F6.1°C 37.1°F2.8°C 80% 10.0 mph SSW16.1 kmh SSW 18.0 mph29.0 kmh 29.48 in998.3 mb - 0.00 in0.0 mm 0.06 in1.5 mm
01:20 PM 43.1°F6.2°C 36.7°F2.6°C 78% 8.0 mph SW12.9 kmh SW 14.0 mph22.5 kmh 29.49 in998.6 mb - 0.00 in0.0 mm 0.06 in1.5 mm
01:30 PM 42.3°F5.7°C 35.9°F2.2°C 78% 7.0 mph WSW11.3 kmh WSW 13.0 mph20.9 kmh 29.50 in999.0 mb - 0.00 in0.0 mm 0.06 in1.5 mm
01:40 PM 41.6°F5.3°C 35.6°F2.0°C 79% 8.0 mph SW12.9 kmh SW 7.0 mph11.3 kmh 29.50 in999.0 mb - 0.00 in0.0 mm 0.06 in1.5 mm
01:50 PM 41.6°F5.3°C 35.6°F2.0°C 79% 13.0 mph WSW20.9 kmh WSW 16.0 mph25.7 kmh 29.50 in999.0 mb - 0.00 in0.0 mm 0.06 in1.5 mm
02:00 PM 41.6°F5.3°C 35.9°F2.2°C 80% 8.0 mph WSW12.9 kmh WSW 15.0 mph24.1 kmh 29.49 in998.6 mb - 0.00 in0.0 mm 0.06 in1.5 mm
02:10 PM 41.3°F5.2°C 35.9°F2.2°C 81% 7.0 mph W11.3 kmh W 10.0 mph16.1 kmh 29.49 in998.6 mb - 0.00 in0.0 mm 0.06 in1.5 mm
02:20 PM 41.3°F5.2°C 35.6°F2.0°C 80% 6.0 mph SW9.7 kmh SW 6.0 mph9.7 kmh 29.50 in999.0 mb - 0.00 in0.0 mm 0.06 in1.5 mm
02:30 PM 41.3°F5.2°C 35.3°F1.8°C 79% 7.0 mph WSW11.3 kmh WSW 10.0 mph16.1 kmh 29.51 in999.3 mb - 0.00 in0.0 mm 0.06 in1.5 mm
02:40 PM 41.2°F5.1°C 35.2°F1.8°C 79% 9.0 mph SW14.5 kmh SW 14.0 mph22.5 kmh 29.51 in999.3 mb - 0.00 in0.0 mm 0.06 in1.5 mm
02:50 PM 40.9°F4.9°C 34.9°F1.6°C 79% 9.0 mph WSW14.5 kmh WSW 12.0 mph19.3 kmh 29.51 in999.3 mb - 0.00 in0.0 mm 0.06 in1.5 mm
03:00 PM 40.0°F4.4°C 34.7°F1.5°C 81% 7.0 mph WSW11.3 kmh WSW 8.0 mph12.9 kmh 29.51 in999.3 mb - 0.00 in0.0 mm 0.06 in1.5 mm
03:10 PM 39.2°F4.0°C 34.4°F1.3°C 83% 1.0 mph WSW1.6 kmh WSW 3.0 mph4.8 kmh 29.52 in999.7 mb - 0.00 in0.0 mm 0.06 in1.5 mm
03:20 PM 38.7°F3.7°C 34.3°F1.3°C 84% Calm Calm 1.0 mph1.6 kmh 29.52 in999.7 mb - 0.00 in0.0 mm 0.06 in1.5 mm
03:30 PM 38.3°F3.5°C 33.9°F1.1°C 84% Calm Calm -- 29.53 in1000.0 mb - 0.00 in0.0 mm 0.06 in1.5 mm
03:40 PM 38.5°F3.6°C 34.1°F1.2°C 84% Calm Calm -- 29.53 in1000.0 mb - 0.00 in0.0 mm 0.06 in1.5 mm
03:50 PM 38.4°F3.6°C 34.2°F1.2°C 85% 3.0 mph WSW4.8 kmh WSW 3.0 mph4.8 kmh 29.53 in1000.0 mb - 0.00 in0.0 mm 0.06 in1.5 mm
04:00 PM 38.8°F3.8°C 33.5°F0.8°C 81% 3.0 mph SW4.8 kmh SW 6.0 mph9.7 kmh 29.53 in1000.0 mb 0.00 in0.0 mm 0.00 in0.0 mm 0.06 in1.5 mm
04:10 PM 38.4°F3.6°C 33.1°F0.6°C 81% 1.0 mph SW1.6 kmh SW 2.0 mph3.2 kmh 29.53 in1000.0 mb 0.00 in0.0 mm 0.00 in0.0 mm 0.06 in1.5 mm
04:20 PM 37.5°F3.1°C 32.6°F0.3°C 82% 2.0 mph SW3.2 kmh SW 3.0 mph4.8 kmh 29.53 in1000.0 mb 0.00 in0.0 mm 0.00 in0.0 mm 0.06 in1.5 mm
04:30 PM 36.2°F2.3°C 31.5°F-0.3°C 83% 5.0 mph SW8.0 kmh SW 5.0 mph8.0 kmh 29.54 in1000.3 mb 0.00 in0.0 mm 0.00 in0.0 mm 0.06 in1.5 mm
04:40 PM 35.9°F2.2°C 31.5°F-0.3°C 84% 3.0 mph SW4.8 kmh SW 8.0 mph12.9 kmh 29.54 in1000.3 mb 0.00 in0.0 mm 0.00 in0.0 mm 0.06 in1.5 mm
04:50 PM 36.1°F2.3°C 31.4°F-0.3°C 83% 3.0 mph SW4.8 kmh SW 6.0 mph9.7 kmh 29.54 in1000.3 mb 0.00 in0.0 mm 0.00 in0.0 mm 0.06 in1.5 mm
05:00 PM 35.7°F2.1°C 31.0°F-0.6°C 83% 2.0 mph SW3.2 kmh SW 3.0 mph4.8 kmh 29.54 in1000.3 mb 0.00 in0.0 mm 0.00 in0.0 mm 0.06 in1.5 mm
05:10 PM 34.7°F1.5°C 30.4°F-0.9°C 84% 2.0 mph SW3.2 kmh SW 3.0 mph4.8 kmh 29.54 in1000.3 mb 0.00 in0.0 mm 0.00 in0.0 mm 0.06 in1.5 mm
05:20 PM 33.8°F1.0°C 30.1°F-1.1°C 86% 3.0 mph SW4.8 kmh SW 3.0 mph4.8 kmh 29.55 in1000.7 mb 0.00 in0.0 mm 0.00 in0.0 mm 0.06 in1.5 mm
05:30 PM 33.5°F0.8°C 30.3°F-0.9°C 88% 2.0 mph SW3.2 kmh SW 3.0 mph4.8 kmh 29.55 in1000.7 mb 0.00 in0.0 mm 0.00 in0.0 mm 0.06 in1.5 mm
05:40 PM 33.8°F1.0°C 30.6°F-0.8°C 88% 5.0 mph S8.0 kmh S 8.0 mph12.9 kmh 29.55 in1000.7 mb 0.00 in0.0 mm 0.00 in0.0 mm 0.06 in1.5 mm
05:50 PM 34.8°F1.6°C 31.6°F-0.2°C 88% 3.0 mph S4.8 kmh S 6.0 mph9.7 kmh 29.56 in1001.0 mb 0.00 in0.0 mm 0.00 in0.0 mm 0.06 in1.5 mm
06:00 PM 35.5°F1.9°C 32.0°F0.0°C 87% 2.0 mph S3.2 kmh S 3.0 mph4.8 kmh 29.56 in1001.0 mb 0.00 in0.0 mm 0.00 in0.0 mm 0.06 in1.5 mm
06:10 PM 36.0°F2.2°C 32.2°F0.1°C 86% 2.0 mph S3.2 kmh S 3.0 mph4.8 kmh 29.55 in1000.7 mb 0.00 in0.0 mm 0.00 in0.0 mm 0.06 in1.5 mm
06:20 PM 36.1°F2.3°C 32.0°F0.0°C 85% 2.0 mph S3.2 kmh S 3.0 mph4.8 kmh 29.55 in1000.7 mb 0.00 in0.0 mm 0.00 in0.0 mm 0.06 in1.5 mm
06:30 PM 36.0°F2.2°C 32.2°F0.1°C 86% 1.0 mph S1.6 kmh S 3.0 mph4.8 kmh 29.55 in1000.7 mb 0.00 in0.0 mm 0.00 in0.0 mm 0.06 in1.5 mm
06:40 PM 36.2°F2.3°C 32.4°F0.2°C 86% 2.0 mph S3.2 kmh S 3.0 mph4.8 kmh 29.55 in1000.7 mb 0.00 in0.0 mm 0.00 in0.0 mm 0.06 in1.5 mm
06:50 PM 36.6°F2.6°C 32.5°F0.3°C 85% 3.0 mph S4.8 kmh S 5.0 mph8.0 kmh 29.55 in1000.7 mb 0.00 in0.0 mm 0.00 in0.0 mm 0.06 in1.5 mm
07:00 PM 36.5°F2.5°C 32.4°F0.2°C 85% 1.0 mph S1.6 kmh S 2.0 mph3.2 kmh 29.56 in1001.0 mb 0.00 in0.0 mm 0.00 in0.0 mm 0.06 in1.5 mm
07:10 PM 36.5°F2.5°C 32.4°F0.2°C 85% 3.0 mph S4.8 kmh S 5.0 mph8.0 kmh 29.55 in1000.7 mb 0.00 in0.0 mm 0.00 in0.0 mm 0.06 in1.5 mm
07:20 PM 36.5°F2.5°C 32.7°F0.4°C 86% 1.0 mph S1.6 kmh S 3.0 mph4.8 kmh 29.55 in1000.7 mb 0.00 in0.0 mm 0.00 in0.0 mm 0.06 in1.5 mm
07:30 PM 36.5°F2.5°C 32.7°F0.4°C 86% 2.0 mph S3.2 kmh S 2.0 mph3.2 kmh 29.55 in1000.7 mb 0.00 in0.0 mm 0.00 in0.0 mm 0.06 in1.5 mm
07:40 PM 36.6°F2.6°C 32.8°F0.4°C 86% Calm Calm 1.0 mph1.6 kmh 29.55 in1000.7 mb 0.00 in0.0 mm 0.00 in0.0 mm 0.06 in1.5 mm
07:50 PM 36.3°F2.4°C 32.5°F0.3°C 86% 1.0 mph S1.6 kmh S 3.0 mph4.8 kmh 29.55 in1000.7 mb 0.00 in0.0 mm 0.00 in0.0 mm 0.06 in1.5 mm
08:00 PM 36.2°F2.3°C 32.4°F0.2°C 86% Calm Calm -- 29.55 in1000.7 mb 0.00 in0.0 mm 0.00 in0.0 mm 0.06 in1.5 mm
08:10 PM 36.1°F2.3°C 32.3°F0.2°C 86% 1.0 mph S1.6 kmh S 2.0 mph3.2 kmh 29.56 in1001.0 mb 0.00 in0.0 mm 0.00 in0.0 mm 0.06 in1.5 mm
08:20 PM 36.0°F2.2°C 32.2°F0.1°C 86% Calm Calm 1.0 mph1.6 kmh 29.56 in1001.0 mb 0.00 in0.0 mm 0.00 in0.0 mm 0.06 in1.5 mm
08:30 PM 36.1°F2.3°C 32.3°F0.2°C 86% Calm Calm 1.0 mph1.6 kmh 29.56 in1001.0 mb 0.00 in0.0 mm 0.00 in0.0 mm 0.06 in1.5 mm
08:40 PM 36.3°F2.4°C 32.2°F0.1°C 85% Calm Calm 1.0 mph1.6 kmh 29.56 in1001.0 mb 0.00 in0.0 mm 0.00 in0.0 mm 0.06 in1.5 mm
08:50 PM 36.2°F2.3°C 32.4°F0.2°C 86% Calm Calm -- 29.57 in1001.4 mb 0.00 in0.0 mm 0.00 in0.0 mm 0.06 in1.5 mm
09:00 PM 36.3°F2.4°C 32.5°F0.3°C 86% 1.0 mph S1.6 kmh S 1.0 mph1.6 kmh 29.57 in1001.4 mb 0.00 in0.0 mm 0.00 in0.0 mm 0.06 in1.5 mm
09:10 PM 36.4°F2.4°C 32.6°F0.3°C 86% Calm Calm 1.0 mph1.6 kmh 29.56 in1001.0 mb 0.00 in0.0 mm 0.00 in0.0 mm 0.06 in1.5 mm
09:20 PM 36.5°F2.5°C 32.4°F0.2°C 85% Calm Calm -- 29.56 in1001.0 mb 0.00 in0.0 mm 0.00 in0.0 mm 0.06 in1.5 mm
09:30 PM 36.5°F2.5°C 32.4°F0.2°C 85% Calm Calm 1.0 mph1.6 kmh 29.56 in1001.0 mb 0.00 in0.0 mm 0.00 in0.0 mm 0.06 in1.5 mm
09:40 PM 36.4°F2.4°C 32.6°F0.3°C 86% Calm Calm 2.0 mph3.2 kmh 29.56 in1001.0 mb 0.00 in0.0 mm 0.00 in0.0 mm 0.06 in1.5 mm
09:50 PM 36.4°F2.4°C 32.6°F0.3°C 86% Calm Calm 1.0 mph1.6 kmh 29.56 in1001.0 mb 0.00 in0.0 mm 0.00 in0.0 mm 0.06 in1.5 mm
10:00 PM 36.4°F2.4°C 32.6°F0.3°C 86% Calm Calm -- 29.56 in1001.0 mb 0.00 in0.0 mm 0.00 in0.0 mm 0.06 in1.5 mm
10:10 PM 36.3°F2.4°C 32.8°F0.4°C 87% 1.0 mph S1.6 kmh S 1.0 mph1.6 kmh 29.56 in1001.0 mb 0.00 in0.0 mm 0.00 in0.0 mm 0.06 in1.5 mm
10:20 PM 36.2°F2.3°C 32.7°F0.4°C 87% Calm Calm 2.0 mph3.2 kmh 29.56 in1001.0 mb 0.00 in0.0 mm 0.00 in0.0 mm 0.06 in1.5 mm
10:30 PM 36.1°F2.3°C 32.9°F0.5°C 88% Calm Calm 1.0 mph1.6 kmh 29.56 in1001.0 mb 0.00 in0.0 mm 0.00 in0.0 mm 0.06 in1.5 mm
10:40 PM 36.1°F2.3°C 32.9°F0.5°C 88% 1.0 mph S1.6 kmh S 2.0 mph3.2 kmh 29.57 in1001.4 mb 0.00 in0.0 mm 0.00 in0.0 mm 0.06 in1.5 mm
10:50 PM 36.1°F2.3°C 32.9°F0.5°C 88% Calm Calm -- 29.57 in1001.4 mb 0.00 in0.0 mm 0.00 in0.0 mm 0.06 in1.5 mm
11:00 PM 36.0°F2.2°C 32.8°F0.4°C 88% Calm Calm -- 29.57 in1001.4 mb 0.00 in0.0 mm 0.00 in0.0 mm 0.06 in1.5 mm
11:10 PM 35.9°F2.2°C 33.0°F0.6°C 89% Calm Calm -- 29.58 in1001.7 mb 0.00 in0.0 mm 0.00 in0.0 mm 0.06 in1.5 mm
11:20 PM 35.5°F1.9°C 32.6°F0.3°C 89% Calm Calm -- 29.58 in1001.7 mb 0.00 in0.0 mm 0.00 in0.0 mm 0.06 in1.5 mm
11:30 PM 35.3°F1.8°C 32.7°F0.4°C 90% Calm Calm 1.0 mph1.6 kmh 29.58 in1001.7 mb 0.00 in0.0 mm 0.00 in0.0 mm 0.06 in1.5 mm
11:40 PM 35.4°F1.9°C 32.7°F0.4°C 90% Calm Calm 1.0 mph1.6 kmh 29.58 in1001.7 mb 0.00 in0.0 mm 0.00 in0.0 mm 0.06 in1.5 mm
11:50 PM 35.6°F2.0°C 33.0°F0.6°C 90% Calm Calm -- 29.58 in1001.7 mb 0.00 in0.0 mm 0.00 in0.0 mm 0.06 in1.5 mm